Lupin, Canada
Current Conditions -  °F | °C
As of 9:21 PM on Tuesday 21 Oct 2014 (Local Time) from CYWE Reporting Station
Overcast Overcast  
Wind Chill: 22°   Ceiling: 2100
Heat Index: 28°   Visibility: 9mi
Dew Point: 27°   Wind: 6mph
Humidity: 93%   Direction: 330°NNW
Pressure: 29.54"   Gusts: NA
Location:  65.76°N, 111.25°W
Report Text: CYWE 220321Z AUTO 33005KT 9SM FEW014 BKN021 OVC025 M02/M03 A2954 RMK SLP027
Loading
Personal Weather Stations






























Interactive Weather Map
Tropical Storm Tracking
New forecast layout! Learn more

10-Day Weather Forecast

Advertisements
Track Severe Weather on mobile